Time;durP1;ratioP1;P1;durP2;ratioP2;P2;SDS_P1;SDS_P2;PMS_P1;PMS_P2;Temp;Humidity;BMP_temperature;BMP_pressure;BME280_temperature;BME280_humidity;BME280_pressure;Samples;Min_cycle;Max_cycle;Signal;HPM_P1;HPM_P2
2020/12/04 05:58:31;;;;;;;0.60;0.10;;;6.70;99.90;;;;;;4919993;23;20234;-76
2020/12/04 06:01:03;;;;;;;0.67;0.10;;;6.80;99.90;;;;;;4899979;29;20210;-73
2020/12/04 06:03:30;;;;;;;0.30;0.20;;;6.80;99.90;;;;;;4900112;29;20270;-76
2020/12/04 06:05:56;;;;;;;0.57;0.20;;;6.90;99.90;;;;;;4900328;29;20238;-73
2020/12/04 06:08:24;;;;;;;0.50;0.20;;;6.90;99.90;;;;;;4900264;29;20217;-79
2020/12/04 06:10:53;;;;;;;1.60;0.10;;;6.90;99.90;;;;;;4904323;29;20213;-77
2020/12/04 06:13:19;;;;;;;3.90;0.63;;;6.90;99.90;;;;;;4908984;29;20213;-75
2020/12/04 06:15:46;;;;;;;0.20;0.10;;;6.90;99.90;;;;;;4907185;29;20233;-74
2020/12/04 06:18:13;;;;;;;0.70;0.10;;;6.90;99.90;;;;;;4904459;29;20209;-77
2020/12/04 06:20:44;;;;;;;0.20;0.10;;;7.00;99.90;;;;;;4907607;29;20210;-78
2020/12/04 06:23:15;;;;;;;1.03;0.17;;;7.00;99.90;;;;;;4905318;29;20214;-81
2020/12/04 06:26:03;;;;;;;1.47;0.20;;;7.00;99.90;;;;;;4905560;29;20237;-75
2020/12/04 06:28:31;;;;;;;0.20;0.10;;;7.00;99.90;;;;;;4905712;29;20207;-73
2020/12/04 06:31:10;;;;;;;3.80;0.40;;;7.00;99.90;;;;;;4909138;29;20213;-77
2020/12/04 06:33:43;;;;;;;0.20;0.10;;;7.00;99.90;;;;;;4907945;29;20212;-79
2020/12/04 06:36:11;;;;;;;0.60;0.20;;;7.10;99.90;;;;;;4905830;29;20226;-79
2020/12/04 06:38:48;;;;;;;0.40;0.20;;;7.00;99.90;;;;;;4906393;29;20238;-75
2020/12/04 06:41:33;;;;;;;0.40;0.27;;;7.00;99.90;;;;;;4911074;29;20274;-79
2020/12/04 06:44:01;;;;;;;0.20;0.10;;;7.00;99.90;;;;;;4898536;29;20297;-79
2020/12/04 06:46:30;;;;;;;0.30;0.20;;;7.00;99.90;;;;;;4905734;29;20217;-77
2020/12/04 06:49:37;;;;;;;0.30;0.20;;;6.90;99.90;;;;;;4901869;29;20210;-78
2020/12/04 06:52:14;;;;;;;1.60;0.20;;;6.90;99.90;;;;;;4899276;29;20249;-77
2020/12/04 06:54:45;;;;;;;0.30;0.20;;;6.80;99.90;;;;;;4905331;29;20241;-77
2020/12/04 06:57:11;;;;;;;0.30;0.10;;;6.80;99.90;;;;;;4905554;29;20669;-77
2020/12/04 06:59:38;;;;;;;0.30;0.30;;;6.80;99.90;;;;;;4912334;29;20229;-75
2020/12/04 07:02:11;;;;;;;0.30;0.20;;;6.90;99.90;;;;;;4905524;29;20574;-77
2020/12/04 07:04:39;;;;;;;0.40;0.20;;;7.00;99.90;;;;;;4906319;29;20596;-75
2020/12/04 07:07:06;;;;;;;0.37;0.20;;;6.90;99.90;;;;;;4910008;29;20213;-76
2020/12/04 07:09:33;;;;;;;0.20;0.20;;;6.90;99.90;;;;;;4913032;29;20686;-76
2020/12/04 07:12:00;;;;;;;0.60;0.20;;;7.00;99.90;;;;;;4909453;29;20244;-74
2020/12/04 07:14:27;;;;;;;0.47;0.20;;;7.00;99.90;;;;;;4908483;29;20241;-74
2020/12/04 07:16:54;;;;;;;0.50;0.20;;;7.00;99.90;;;;;;4897259;29;20573;-74
2020/12/04 07:19:22;;;;;;;0.60;0.20;;;7.00;99.90;;;;;;4904744;29;20210;-72
2020/12/04 07:21:48;;;;;;;0.90;0.20;;;7.00;99.90;;;;;;4907455;29;20221;-74
2020/12/04 07:24:14;;;;;;;0.57;0.20;;;7.00;99.90;;;;;;4908403;29;20209;-71
2020/12/04 07:26:46;;;;;;;0.53;0.20;;;7.00;99.90;;;;;;4906339;29;20210;-73
2020/12/04 07:29:14;;;;;;;0.40;0.20;;;7.00;99.90;;;;;;4904337;29;20202;-75
2020/12/04 07:31:46;;;;;;;2.63;0.50;;;7.00;99.90;;;;;;4914463;29;20232;-78
2020/12/04 07:34:13;;;;;;;0.40;0.20;;;7.00;99.90;;;;;;4907127;29;20297;-79
2020/12/04 07:36:49;;;;;;;1.40;0.20;;;7.10;99.90;;;;;;4905560;29;20210;-77
2020/12/04 07:39:26;;;;;;;0.20;0.10;;;7.00;99.90;;;;;;4914915;29;20208;-77
2020/12/04 07:41:54;;;;;;;1.60;0.53;;;7.00;99.90;;;;;;4899649;29;20605;-78
2020/12/04 07:44:30;;;;;;;0.77;0.20;;;7.10;99.90;;;;;;4908201;29;20230;-75
2020/12/04 07:47:08;;;;;;;0.33;0.20;;;7.10;99.90;;;;;;4897472;29;20209;-76
2020/12/04 07:49:36;;;;;;;0.60;0.20;;;7.10;99.90;;;;;;4911224;29;20212;-74
2020/12/04 07:52:12;;;;;;;0.97;0.20;;;7.10;99.90;;;;;;4897741;29;20616;-76
2020/12/04 07:54:38;;;;;;;2.30;0.40;;;7.20;99.90;;;;;;4898242;29;20241;-76
2020/12/04 07:57:05;;;;;;;0.30;0.30;;;7.30;99.90;;;;;;4898074;29;20215;-77
2020/12/04 07:59:33;;;;;;;0.47;0.30;;;7.20;99.90;;;;;;4897742;29;20222;-76
2020/12/04 08:02:00;;;;;;;2.07;0.30;;;7.10;99.90;;;;;;4898065;29;20221;-77
2020/12/04 08:04:27;;;;;;;2.63;0.30;;;7.10;99.90;;;;;;4896866;29;20720;-77
2020/12/04 08:07:05;;;;;;;0.53;0.30;;;7.20;99.90;;;;;;4897861;29;20225;-76
2020/12/04 08:09:38;;;;;;;0.53;0.30;;;7.10;99.90;;;;;;4897691;29;20693;-76
2020/12/04 08:12:08;;;;;;;0.80;0.30;;;7.10;99.90;;;;;;4897470;29;20724;-77
2020/12/04 08:14:35;;;;;;;0.43;0.33;;;7.10;99.90;;;;;;4897168;29;20571;-77
2020/12/04 08:17:01;;;;;;;0.50;0.20;;;7.20;99.90;;;;;;4897625;29;20214;-77
2020/12/04 08:19:30;;;;;;;0.67;0.30;;;7.10;99.90;;;;;;4897497;29;20207;-76
2020/12/04 08:22:01;;;;;;;0.40;0.30;;;7.20;99.90;;;;;;4897399;29;20226;-77
2020/12/04 08:24:32;;;;;;;0.37;0.30;;;7.10;99.90;;;;;;4897432;29;20230;-76
2020/12/04 08:27:01;;;;;;;0.27;0.20;;;7.10;99.90;;;;;;4897499;29;20217;-76
2020/12/04 08:29:27;;;;;;;2.50;0.20;;;7.10;99.90;;;;;;4897049;29;20210;-76
2020/12/04 08:32:03;;;;;;;0.20;0.20;;;7.10;99.90;;;;;;4897730;29;20597;-77
2020/12/04 08:34:29;;;;;;;2.17;0.30;;;7.10;99.90;;;;;;4897766;29;20226;-77
2020/12/04 08:36:59;;;;;;;0.33;0.20;;;7.10;99.90;;;;;;4897053;29;20578;-77
2020/12/04 08:39:41;;;;;;;0.97;0.20;;;7.10;99.90;;;;;;4894849;29;20207;-77
2020/12/04 08:42:15;;;;;;;0.20;0.13;;;7.10;99.90;;;;;;4894971;29;20225;-77
2020/12/04 08:44:41;;;;;;;0.43;0.20;;;7.20;99.90;;;;;;4896853;29;20332;-77
2020/12/04 08:47:07;;;;;;;0.57;0.30;;;7.20;99.90;;;;;;4898629;29;20214;-77
2020/12/04 08:49:33;;;;;;;0.30;0.20;;;7.10;99.90;;;;;;4901276;29;20217;-77
2020/12/04 08:52:00;;;;;;;0.40;0.20;;;7.10;99.90;;;;;;4901060;29;20244;-77
2020/12/04 08:54:27;;;;;;;0.43;0.23;;;7.10;99.90;;;;;;4900776;29;20282;-77
2020/12/04 08:56:55;;;;;;;0.37;0.10;;;7.10;99.90;;;;;;4901369;29;20218;-77
2020/12/04 08:59:23;;;;;;;1.03;0.40;;;7.20;99.90;;;;;;4901108;29;20225;-77
2020/12/04 09:01:50;;;;;;;0.30;0.20;;;7.20;99.90;;;;;;4901172;29;20225;-70
2020/12/04 09:04:17;;;;;;;0.50;0.30;;;7.20;99.90;;;;;;4900971;29;20597;-72
2020/12/04 09:06:43;;;;;;;0.40;0.30;;;7.20;99.90;;;;;;4900382;29;20218;-72
2020/12/04 09:09:09;;;;;;;0.40;0.23;;;7.30;99.90;;;;;;4900638;29;20214;-72
2020/12/04 09:11:35;;;;;;;0.40;0.30;;;7.20;99.90;;;;;;4900655;29;20235;-73
2020/12/04 09:14:02;;;;;;;1.17;0.20;;;7.20;99.90;;;;;;4900451;29;20218;-73
2020/12/04 09:16:29;;;;;;;2.40;0.50;;;7.10;99.90;;;;;;4900759;29;20221;-73
2020/12/04 09:18:55;;;;;;;0.63;0.30;;;7.10;99.90;;;;;;4900163;29;20585;-73
2020/12/04 09:21:21;;;;;;;0.30;0.20;;;7.00;99.90;;;;;;4900129;29;20217;-72
2020/12/04 09:23:47;;;;;;;0.50;0.30;;;7.00;99.90;;;;;;4900378;29;20206;-73
2020/12/04 09:26:13;;;;;;;0.80;0.30;;;7.10;99.90;;;;;;4900843;29;20225;-74
2020/12/04 09:28:40;;;;;;;0.30;0.20;;;7.10;99.90;;;;;;4909520;29;20214;-73
2020/12/04 09:31:06;;;;;;;0.47;0.20;;;7.20;99.90;;;;;;4909885;29;20601;-74
2020/12/04 09:33:33;;;;;;;1.67;0.30;;;7.20;99.90;;;;;;4902458;29;20246;-73
2020/12/04 09:36:00;;;;;;;0.50;0.30;;;7.10;99.90;;;;;;4899800;29;20234;-73
2020/12/04 09:38:26;;;;;;;0.40;0.30;;;7.10;99.90;;;;;;4899915;29;20665;-73
2020/12/04 09:40:52;;;;;;;0.20;0.10;;;7.10;99.90;;;;;;4900118;29;20214;-73
2020/12/04 09:43:18;;;;;;;0.37;0.30;;;7.10;99.90;;;;;;4900191;29;20681;-73
2020/12/04 09:45:44;;;;;;;0.50;0.20;;;7.10;99.90;;;;;;4897222;29;20235;-73
2020/12/04 09:48:11;;;;;;;0.30;0.20;;;7.10;99.90;;;;;;4899385;29;20217;-72
2020/12/04 09:50:38;;;;;;;0.57;0.20;;;7.10;99.90;;;;;;4899508;29;20214;-71
2020/12/04 09:53:05;;;;;;;3.90;0.40;;;7.10;99.90;;;;;;4899497;29;20242;-72
2020/12/04 09:55:32;;;;;;;0.47;0.37;;;7.00;99.90;;;;;;4899466;29;20234;-71
2020/12/04 09:57:58;;;;;;;0.50;0.30;;;7.00;99.90;;;;;;4898640;29;20206;-74
2020/12/04 10:00:24;;;;;;;0.37;0.20;;;7.10;99.90;;;;;;4898741;29;20210;-74
2020/12/04 10:02:50;;;;;;;2.00;0.30;;;7.10;99.90;;;;;;4899862;29;20237;-73
2020/12/04 10:05:16;;;;;;;0.40;0.20;;;7.20;99.90;;;;;;4899488;29;20257;-73
2020/12/04 10:07:43;;;;;;;0.33;0.23;;;7.30;99.90;;;;;;4899612;29;20217;-72
2020/12/04 10:10:10;;;;;;;0.30;0.20;;;7.40;99.90;;;;;;4900011;29;20214;-74
2020/12/04 10:12:36;;;;;;;0.50;0.20;;;7.40;99.90;;;;;;4899452;29;20242;-72
2020/12/04 10:15:03;;;;;;;3.13;0.30;;;7.50;99.90;;;;;;4899029;29;20238;-71
2020/12/04 10:17:29;;;;;;;0.40;0.30;;;7.50;99.90;;;;;;4898945;29;20222;-73
2020/12/04 10:19:55;;;;;;;0.30;0.20;;;7.40;99.90;;;;;;4899414;29;20677;-73
2020/12/04 10:22:21;;;;;;;0.40;0.30;;;7.40;99.90;;;;;;4909023;29;20221;-72
2020/12/04 10:24:48;;;;;;;0.60;0.30;;;7.30;99.90;;;;;;4917573;29;20712;-74
2020/12/04 10:27:15;;;;;;;0.90;0.60;;;7.30;99.90;;;;;;4902476;29;20227;-73
2020/12/04 10:29:41;;;;;;;0.50;0.40;;;7.20;99.90;;;;;;4899483;29;20210;-73
2020/12/04 10:32:07;;;;;;;0.60;0.40;;;7.20;99.90;;;;;;4898875;29;20242;-73
2020/12/04 10:34:33;;;;;;;1.03;0.50;;;7.30;99.90;;;;;;4898775;29;20258;-73
2020/12/04 10:36:59;;;;;;;0.70;0.40;;;7.30;99.90;;;;;;4898959;29;20222;-73
2020/12/04 10:39:25;;;;;;;1.10;0.50;;;7.30;99.90;;;;;;4898628;29;20566;-73
2020/12/04 10:41:53;;;;;;;0.40;0.37;;;7.40;99.90;;;;;;4906815;29;20217;-72
2020/12/04 10:44:19;;;;;;;0.70;0.40;;;7.50;99.90;;;;;;4899191;29;20227;-70
2020/12/04 10:46:45;;;;;;;2.83;0.70;;;7.60;99.90;;;;;;4898256;29;20704;-74
2020/12/04 10:49:11;;;;;;;0.80;0.50;;;7.50;99.90;;;;;;4898959;29;20211;-75
2020/12/04 10:51:37;;;;;;;0.70;0.40;;;7.40;99.90;;;;;;4898925;29;20584;-70
2020/12/04 10:54:05;;;;;;;0.83;0.40;;;7.40;99.90;;;;;;4898195;29;20661;-73
2020/12/04 10:56:32;;;;;;;1.53;0.70;;;7.30;99.90;;;;;;4898690;29;20214;-73
2020/12/04 10:58:59;;;;;;;1.13;0.70;;;7.40;99.90;;;;;;4898483;29;20234;-73
2020/12/04 11:01:32;;;;;;;1.37;0.67;;;7.40;99.90;;;;;;4898065;29;20210;-72
2020/12/04 11:06:43;;;;;;;1.20;0.70;;;7.20;99.90;;;;;;4908420;29;20580;-73
2020/12/04 11:09:09;;;;;;;0.50;0.33;;;7.10;99.90;;;;;;4905090;29;20210;-75
2020/12/04 11:11:35;;;;;;;1.30;0.57;;;7.10;99.90;;;;;;4898981;29;20308;-74
2020/12/04 11:14:02;;;;;;;0.80;0.50;;;7.10;99.90;;;;;;4898186;29;20214;-72
2020/12/04 11:16:28;;;;;;;1.53;0.70;;;7.10;99.90;;;;;;4897970;29;20221;-74
2020/12/04 11:18:55;;;;;;;0.77;0.40;;;7.30;99.90;;;;;;4898818;29;20210;-70
2020/12/04 11:21:21;;;;;;;0.97;0.53;;;7.40;99.90;;;;;;4898670;29;20217;-71
2020/12/04 11:23:47;;;;;;;0.63;0.47;;;7.50;99.90;;;;;;4909883;29;20681;-74
2020/12/04 11:26:15;;;;;;;0.30;0.20;;;7.70;99.90;;;;;;4909164;29;20241;-72
2020/12/04 11:28:41;;;;;;;1.90;0.60;;;7.70;99.90;;;;;;4898577;29;20210;-71
2020/12/04 11:31:08;;;;;;;0.47;0.20;;;7.80;99.90;;;;;;4898196;29;20210;-73
2020/12/04 11:33:34;;;;;;;0.80;0.30;;;7.90;99.90;;;;;;4898409;29;20245;-73
2020/12/04 11:36:00;;;;;;;1.50;0.30;;;8.00;99.90;;;;;;4898092;29;20245;-72
2020/12/04 11:38:26;;;;;;;0.73;0.40;;;8.10;99.90;;;;;;4897954;29;20214;-70
2020/12/04 11:40:53;;;;;;;0.50;0.37;;;8.00;99.90;;;;;;4898529;29;20217;-72
2020/12/04 11:43:19;;;;;;;0.37;0.27;;;7.90;99.90;;;;;;4895766;29;20700;-71
2020/12/04 11:45:45;;;;;;;0.60;0.30;;;7.80;99.90;;;;;;4896146;29;20234;-78
2020/12/04 11:48:12;;;;;;;0.53;0.30;;;7.80;99.90;;;;;;4897303;29;20309;-75
2020/12/04 11:50:38;;;;;;;0.40;0.30;;;7.90;99.90;;;;;;4897119;29;20226;-78
2020/12/04 11:53:05;;;;;;;0.33;0.20;;;7.90;99.90;;;;;;4896758;29;20245;-74
2020/12/04 11:55:31;;;;;;;0.70;0.30;;;7.90;99.90;;;;;;4896916;29;20231;-72
2020/12/04 11:57:57;;;;;;;0.83;0.40;;;7.90;99.90;;;;;;4896999;29;20557;-72
2020/12/04 12:00:24;;;;;;;0.30;0.20;;;7.80;99.90;;;;;;4895930;29;20220;-75
2020/12/04 12:02:50;;;;;;;0.50;0.20;;;7.90;99.90;;;;;;4896749;29;20216;-72
2020/12/04 12:05:17;;;;;;;1.33;0.40;;;7.90;99.90;;;;;;4895959;29;20586;-74
2020/12/04 12:07:44;;;;;;;0.30;0.20;;;7.90;99.90;;;;;;4895893;29;20210;-71
2020/12/04 12:10:10;;;;;;;0.30;0.30;;;8.00;99.90;;;;;;4896304;29;20210;-76
2020/12/04 12:12:37;;;;;;;1.37;0.23;;;8.00;99.90;;;;;;4895838;29;20238;-71
2020/12/04 12:15:03;;;;;;;0.60;0.40;;;8.00;99.90;;;;;;4895024;29;20257;-72
2020/12/04 12:17:29;;;;;;;0.53;0.40;;;8.00;99.90;;;;;;4897283;29;20210;-68
2020/12/04 12:19:56;;;;;;;0.80;0.33;;;8.00;99.90;;;;;;4898109;29;20311;-70
2020/12/04 12:22:23;;;;;;;0.90;0.30;;;7.80;99.90;;;;;;4896500;29;20666;-66
2020/12/04 12:24:49;;;;;;;0.20;0.20;;;7.70;99.90;;;;;;4897872;29;20231;-66
2020/12/04 12:27:15;;;;;;;0.57;0.20;;;7.60;99.90;;;;;;4897378;29;20212;-67
2020/12/04 12:29:41;;;;;;;0.57;0.30;;;7.50;99.90;;;;;;4894076;29;20207;-67
2020/12/04 12:32:07;;;;;;;0.50;0.27;;;7.50;99.90;;;;;;4896049;29;20230;-67
2020/12/04 12:37:19;;;;;;;0.97;0.40;;;7.40;99.90;;;;;;4895445;29;20249;-74
2020/12/04 12:39:46;;;;;;;1.70;0.30;;;7.50;99.90;;;;;;4895336;29;20673;-72
2020/12/04 12:42:14;;;;;;;0.37;0.20;;;7.50;99.90;;;;;;4895836;29;20693;-75
2020/12/04 12:44:41;;;;;;;0.80;0.40;;;7.50;99.90;;;;;;4895418;29;20226;-74
2020/12/04 12:47:08;;;;;;;0.83;0.43;;;7.50;99.90;;;;;;4896103;29;20221;-73
2020/12/04 12:49:34;;;;;;;1.00;0.33;;;7.50;99.90;;;;;;4896237;29;20209;-70
2020/12/04 12:52:01;;;;;;;1.07;0.20;;;7.50;99.90;;;;;;4896126;29;20245;-68
2020/12/04 12:54:28;;;;;;;1.10;0.60;;;7.50;99.90;;;;;;4897512;29;20589;-68
2020/12/04 12:56:56;;;;;;;1.93;0.53;;;7.40;99.90;;;;;;4897290;29;20262;-69
2020/12/04 12:59:22;;;;;;;0.60;0.40;;;7.40;99.90;;;;;;4896456;29;20229;-68
2020/12/04 13:01:49;;;;;;;1.10;0.37;;;7.40;99.90;;;;;;4897477;29;20213;-69
2020/12/04 13:04:16;;;;;;;0.37;0.23;;;7.50;99.90;;;;;;4897133;29;20218;-68
2020/12/04 13:06:42;;;;;;;0.50;0.30;;;7.50;99.90;;;;;;4896882;29;20306;-68
2020/12/04 13:09:08;;;;;;;2.10;0.40;;;7.50;99.90;;;;;;4897239;29;20211;-67
2020/12/04 13:11:35;;;;;;;0.93;0.30;;;7.50;99.90;;;;;;4897464;29;20211;-67
2020/12/04 13:14:02;;;;;;;1.63;0.40;;;7.40;99.90;;;;;;4896467;29;20238;-69
2020/12/04 13:16:28;;;;;;;0.37;0.20;;;7.50;99.90;;;;;;4897092;29;20214;-67
2020/12/04 13:18:54;;;;;;;0.40;0.23;;;7.50;99.90;;;;;;4897166;29;20786;-67
2020/12/04 13:21:20;;;;;;;0.93;0.30;;;7.50;99.90;;;;;;4897024;29;20206;-68
2020/12/04 13:23:47;;;;;;;0.87;0.30;;;7.50;99.90;;;;;;4897217;29;20217;-70
2020/12/04 13:28:53;;;;;;;0.83;0.30;;;7.50;99.90;;;;;;4895046;29;20215;-68
2020/12/04 13:31:20;;;;;;;2.00;0.27;;;7.50;99.90;;;;;;4896641;29;20581;-67
2020/12/04 13:33:46;;;;;;;0.23;0.20;;;7.50;99.90;;;;;;4898591;29;20239;-71
2020/12/04 13:36:13;;;;;;;0.40;0.20;;;7.40;99.90;;;;;;4899080;29;20241;-68
2020/12/04 13:38:40;;;;;;;0.70;0.40;;;7.50;99.90;;;;;;4900189;29;20206;-68
2020/12/04 13:41:06;;;;;;;0.77;0.20;;;7.40;99.90;;;;;;4899576;29;20573;-69
2020/12/04 13:43:33;;;;;;;0.60;0.20;;;7.30;99.90;;;;;;4899583;29;20225;-69
2020/12/04 13:45:59;;;;;;;0.50;0.23;;;7.40;99.90;;;;;;4900063;29;20230;-72
2020/12/04 13:48:26;;;;;;;0.30;0.20;;;7.40;99.90;;;;;;4900471;29;20213;-69
2020/12/04 13:50:54;;;;;;;0.37;0.27;;;7.40;99.90;;;;;;4899821;29;20221;-70
2020/12/04 13:53:20;;;;;;;0.60;0.20;;;7.40;99.90;;;;;;4899967;29;20234;-67
2020/12/04 13:55:47;;;;;;;0.60;0.30;;;7.50;99.90;;;;;;4899954;29;20234;-68
2020/12/04 13:58:13;;;;;;;0.47;0.20;;;7.50;99.90;;;;;;4899217;29;20266;-68
2020/12/04 14:00:39;;;;;;;2.50;0.30;;;7.40;99.90;;;;;;4899649;29;20241;-68
2020/12/04 14:03:06;;;;;;;6.43;0.33;;;7.40;99.90;;;;;;4900057;29;20210;-68
2020/12/04 14:05:33;;;;;;;0.40;0.30;;;7.40;99.90;;;;;;4899183;29;20239;-69
2020/12/04 14:07:59;;;;;;;0.43;0.30;;;7.40;99.90;;;;;;4899880;29;20217;-68
2020/12/04 14:10:25;;;;;;;3.73;0.33;;;7.40;99.90;;;;;;4899722;29;20213;-68
2020/12/04 14:12:51;;;;;;;2.97;0.30;;;7.30;99.90;;;;;;4899133;29;20597;-67
2020/12/04 14:15:18;;;;;;;0.90;0.23;;;7.10;99.90;;;;;;4898872;29;20240;-67
2020/12/04 14:17:44;;;;;;;1.80;0.40;;;7.10;99.90;;;;;;4899683;29;20210;-67
2020/12/04 14:20:10;;;;;;;0.60;0.27;;;7.10;99.90;;;;;;4898084;29;20666;-69
2020/12/04 14:22:40;;;;;;;1.90;0.20;;;7.10;99.90;;;;;;4899362;29;20211;-68
2020/12/04 14:25:07;;;;;;;0.20;0.17;;;7.10;99.90;;;;;;4899216;29;20282;-70
2020/12/04 14:27:33;;;;;;;1.60;0.40;;;7.10;99.90;;;;;;4898272;29;20217;-68
2020/12/04 14:29:59;;;;;;;0.47;0.30;;;7.10;99.90;;;;;;4899066;29;20229;-66
2020/12/04 14:32:26;;;;;;;0.73;0.50;;;7.00;99.90;;;;;;4899173;29;20230;-67
2020/12/04 14:34:52;;;;;;;0.73;0.30;;;7.00;99.90;;;;;;4898672;29;20710;-67
2020/12/04 14:37:18;;;;;;;0.50;0.10;;;7.00;99.90;;;;;;4898600;29;20211;-67
2020/12/04 14:39:45;;;;;;;1.40;0.33;;;7.00;99.90;;;;;;4898816;29;20820;-67
2020/12/04 14:42:11;;;;;;;0.53;0.33;;;7.00;99.90;;;;;;4895933;29;20207;-67
2020/12/04 14:44:39;;;;;;;0.50;0.30;;;7.00;99.90;;;;;;4903139;29;20229;-67
2020/12/04 14:47:06;;;;;;;0.40;0.27;;;6.90;99.90;;;;;;4902965;29;20607;-68
2020/12/04 14:49:32;;;;;;;4.20;0.40;;;6.90;99.90;;;;;;4898700;29;20215;-67
2020/12/04 14:51:58;;;;;;;2.97;0.33;;;6.90;99.90;;;;;;4898781;29;20803;-67
2020/12/04 14:54:24;;;;;;;0.33;0.20;;;6.80;99.90;;;;;;4898780;29;20234;-66
2020/12/04 14:56:51;;;;;;;1.10;0.30;;;6.80;99.90;;;;;;4897892;29;20524;-67
2020/12/04 14:59:18;;;;;;;0.63;0.30;;;6.70;99.90;;;;;;4898756;29;20221;-68
2020/12/04 15:01:46;;;;;;;2.27;0.50;;;6.70;99.90;;;;;;4899150;29;20210;-67
2020/12/04 15:04:12;;;;;;;2.57;0.47;;;6.70;99.90;;;;;;4898392;29;20581;-68
2020/12/04 15:06:38;;;;;;;1.57;0.40;;;6.70;99.90;;;;;;4898900;29;20218;-67
2020/12/04 15:09:04;;;;;;;0.47;0.30;;;6.70;99.90;;;;;;4898962;29;20215;-67
2020/12/04 15:11:31;;;;;;;0.73;0.40;;;6.70;99.90;;;;;;4897565;29;20559;-66
2020/12/04 15:13:58;;;;;;;0.67;0.30;;;6.70;99.90;;;;;;4897583;29;20597;-68
2020/12/04 15:16:24;;;;;;;1.90;0.30;;;6.70;99.90;;;;;;4881805;29;20237;-66
2020/12/04 15:18:51;;;;;;;1.43;0.30;;;6.60;99.90;;;;;;4897822;29;20581;-67
2020/12/04 15:21:17;;;;;;;0.70;0.40;;;6.60;99.90;;;;;;4898396;29;20211;-66
2020/12/04 15:23:43;;;;;;;2.90;0.43;;;6.50;99.90;;;;;;4898350;29;20225;-67
2020/12/04 15:26:09;;;;;;;1.57;0.40;;;6.50;99.90;;;;;;4897647;29;20238;-66
2020/12/04 15:28:35;;;;;;;2.47;0.30;;;6.50;99.90;;;;;;4897915;29;20573;-68
2020/12/04 15:31:02;;;;;;;1.70;0.53;;;6.40;99.90;;;;;;4898301;29;20555;-67
2020/12/04 15:33:29;;;;;;;0.83;0.40;;;6.50;99.90;;;;;;4897969;29;20242;-66
2020/12/04 15:35:55;;;;;;;0.77;0.40;;;6.50;99.90;;;;;;4894710;29;20716;-66
2020/12/04 15:38:22;;;;;;;0.67;0.30;;;6.40;99.90;;;;;;4897368;29;20210;-66
2020/12/04 15:40:49;;;;;;;1.53;0.30;;;6.40;99.90;;;;;;4896101;29;20689;-66
2020/12/04 15:43:16;;;;;;;2.83;0.50;;;6.40;99.90;;;;;;4896670;29;20218;-66
2020/12/04 15:45:42;;;;;;;0.93;0.50;;;6.40;99.90;;;;;;4896229;29;20238;-68
2020/12/04 15:48:09;;;;;;;0.23;0.20;;;6.30;99.90;;;;;;4895754;29;20252;-67
2020/12/04 15:50:35;;;;;;;4.13;0.50;;;6.30;99.90;;;;;;4896468;29;20589;-69
2020/12/04 15:53:01;;;;;;;0.50;0.30;;;6.30;99.90;;;;;;4896007;29;20254;-69
2020/12/04 15:55:28;;;;;;;4.87;0.40;;;6.30;99.90;;;;;;4895116;29;20253;-71
2020/12/04 15:57:54;;;;;;;1.27;0.30;;;6.30;99.90;;;;;;4896638;29;20217;-69
2020/12/04 16:00:20;;;;;;;5.30;0.90;;;6.20;99.90;;;;;;4895829;29;20213;-69
2020/12/04 16:02:46;;;;;;;0.43;0.30;;;6.20;99.90;;;;;;4896819;29;20206;-68
2020/12/04 16:05:13;;;;;;;0.43;0.20;;;6.20;99.90;;;;;;4896695;29;20246;-68
2020/12/04 16:07:40;;;;;;;1.93;0.60;;;6.10;99.90;;;;;;4895886;29;20206;-68
2020/12/04 16:10:06;;;;;;;0.53;0.27;;;6.00;99.90;;;;;;4896755;29;20238;-68
2020/12/04 16:12:32;;;;;;;1.03;0.40;;;6.00;99.90;;;;;;4897536;29;20226;-68
2020/12/04 16:14:58;;;;;;;1.47;0.40;;;6.00;99.90;;;;;;4897966;29;20231;-68
2020/12/04 16:17:25;;;;;;;1.87;0.50;;;6.00;99.90;;;;;;4897963;29;20221;-68
2020/12/04 16:19:51;;;;;;;0.80;0.30;;;5.90;99.90;;;;;;4897784;29;20555;-68
2020/12/04 16:22:18;;;;;;;3.60;0.50;;;5.90;99.90;;;;;;4897618;29;20217;-68
2020/12/04 16:24:44;;;;;;;1.73;0.53;;;5.80;99.90;;;;;;4897657;29;20234;-68
2020/12/04 16:27:11;;;;;;;1.53;0.50;;;5.80;99.90;;;;;;4897796;29;20219;-68
2020/12/04 16:29:37;;;;;;;2.10;0.40;;;5.90;99.90;;;;;;4897754;29;20218;-68
2020/12/04 16:32:03;;;;;;;5.37;1.90;;;5.90;99.90;;;;;;4897739;29;20292;-68
2020/12/04 16:34:30;;;;;;;3.57;1.47;;;5.90;99.90;;;;;;4897538;29;20238;-68
2020/12/04 16:36:59;;;;;;;2.93;0.50;;;5.90;99.90;;;;;;4897058;29;20210;-68
2020/12/04 16:39:26;;;;;;;2.23;0.77;;;5.90;99.90;;;;;;4897758;29;20217;-68
2020/12/04 16:41:52;;;;;;;1.87;0.93;;;5.80;99.90;;;;;;4897862;29;20214;-68
2020/12/04 16:44:19;;;;;;;2.97;0.90;;;5.80;99.90;;;;;;4897742;29;20241;-68
2020/12/04 16:46:46;;;;;;;0.90;0.60;;;5.70;99.90;;;;;;4897830;29;20662;-68
2020/12/04 16:49:13;;;;;;;4.53;0.80;;;5.70;99.90;;;;;;4897715;29;20281;-68
2020/12/04 16:51:41;;;;;;;2.30;0.60;;;5.70;99.90;;;;;;4897617;29;20238;-68
2020/12/04 16:54:07;;;;;;;1.67;1.03;;;5.70;99.90;;;;;;4897593;29;20285;-68
2020/12/04 16:56:35;;;;;;;4.70;0.80;;;5.70;99.90;;;;;;4897961;29;20218;-68
2020/12/04 16:59:01;;;;;;;2.63;0.73;;;5.60;99.90;;;;;;4897695;29;20218;-68
2020/12/04 17:01:27;;;;;;;2.47;0.93;;;5.50;99.90;;;;;;4897959;29;20215;-68
2020/12/04 17:03:53;;;;;;;1.83;1.13;;;5.60;99.90;;;;;;4897674;29;20217;-68
2020/12/04 17:06:21;;;;;;;1.30;0.70;;;5.60;99.90;;;;;;4897403;29;20313;-68
2020/12/04 17:08:48;;;;;;;3.33;0.80;;;5.40;99.90;;;;;;4899639;29;20249;-68
2020/12/04 17:11:14;;;;;;;1.43;0.67;;;5.40;99.90;;;;;;4901438;29;20221;-68
2020/12/04 17:13:42;;;;;;;1.70;1.10;;;5.50;99.90;;;;;;4901084;29;20238;-68
2020/12/04 17:16:11;;;;;;;2.90;1.03;;;5.40;99.90;;;;;;4900706;29;20230;-68
2020/12/04 17:18:38;;;;;;;2.63;0.90;;;5.40;99.90;;;;;;4897447;29;20214;-69
2020/12/04 17:21:05;;;;;;;5.40;1.03;;;5.30;99.90;;;;;;4900523;29;20225;-68
2020/12/04 17:23:31;;;;;;;2.27;0.63;;;5.30;99.90;;;;;;4900880;29;20214;-68
2020/12/04 17:25:57;;;;;;;3.17;0.60;;;5.30;99.90;;;;;;4900450;29;20231;-68
2020/12/04 17:28:24;;;;;;;2.10;0.67;;;5.30;99.90;;;;;;4900353;29;20214;-71
2020/12/04 17:30:51;;;;;;;1.03;0.60;;;5.30;99.90;;;;;;4899769;29;20597;-68
2020/12/04 17:33:17;;;;;;;1.30;0.50;;;5.30;99.90;;;;;;4899455;29;20238;-68
2020/12/04 17:35:43;;;;;;;1.30;0.50;;;5.20;99.90;;;;;;4900472;29;20226;-69
2020/12/04 17:38:09;;;;;;;2.27;0.70;;;5.30;99.90;;;;;;4900230;29;20569;-69
2020/12/04 17:40:36;;;;;;;3.67;0.87;;;5.30;99.90;;;;;;4899679;29;20218;-69
2020/12/04 17:43:03;;;;;;;4.17;0.80;;;5.30;99.90;;;;;;4900131;29;20214;-68
2020/12/04 17:45:29;;;;;;;1.20;0.60;;;5.30;99.90;;;;;;4899564;29;20230;-69
2020/12/04 17:47:56;;;;;;;1.90;0.60;;;5.20;99.90;;;;;;4899458;29;20217;-72
2020/12/04 17:50:23;;;;;;;3.90;0.93;;;5.20;99.90;;;;;;4899708;29;20213;-70
2020/12/04 17:52:49;;;;;;;4.10;1.20;;;5.20;99.90;;;;;;4899465;29;20241;-70
2020/12/04 17:55:15;;;;;;;1.60;0.70;;;5.30;99.90;;;;;;4880988;29;20231;-68
2020/12/04 17:57:42;;;;;;;2.77;1.13;;;5.30;99.90;;;;;;4885759;29;20222;-68
2020/12/04 18:00:09;;;;;;;3.10;0.90;;;5.30;99.90;;;;;;4898837;29;20230;-69
2020/12/04 18:02:35;;;;;;;4.37;1.50;;;5.30;99.90;;;;;;4899682;29;20666;-71
2020/12/04 18:05:03;;;;;;;1.60;0.80;;;5.20;99.90;;;;;;4899635;29;20241;-69
2020/12/04 18:07:30;;;;;;;4.83;0.80;;;5.10;99.90;;;;;;4900066;29;20228;-69
2020/12/04 18:09:56;;;;;;;3.67;1.20;;;5.10;99.90;;;;;;4899157;29;20614;-68
2020/12/04 18:12:23;;;;;;;4.93;1.10;;;5.10;99.90;;;;;;4899459;29;20244;-68
2020/12/04 18:14:49;;;;;;;3.43;1.53;;;5.10;99.90;;;;;;4899760;29;20227;-72
2020/12/04 18:17:16;;;;;;;5.13;1.30;;;5.10;99.90;;;;;;4899358;29;20222;-70
2020/12/04 18:19:42;;;;;;;2.30;1.10;;;5.20;99.90;;;;;;4899232;29;20210;-68
2020/12/04 18:22:09;;;;;;;2.83;0.97;;;5.10;99.90;;;;;;4899228;29;20574;-68
2020/12/04 18:24:35;;;;;;;2.60;1.00;;;5.20;99.90;;;;;;4899343;29;20324;-69
2020/12/04 18:27:02;;;;;;;5.30;1.20;;;5.10;99.90;;;;;;4898830;29;20214;-69
2020/12/04 18:29:28;;;;;;;2.00;1.13;;;4.90;99.90;;;;;;4896025;29;20210;-69
2020/12/04 18:31:54;;;;;;;4.57;1.17;;;4.90;99.90;;;;;;4899596;29;20217;-69
2020/12/04 18:34:21;;;;;;;3.20;0.93;;;5.00;99.90;;;;;;4899570;29;20246;-69
2020/12/04 18:36:48;;;;;;;4.10;0.93;;;4.90;99.90;;;;;;4899090;29;20579;-69
2020/12/04 18:39:16;;;;;;;5.40;1.10;;;4.90;99.90;;;;;;4899291;29;20569;-69
2020/12/04 18:41:42;;;;;;;2.40;1.10;;;4.90;99.90;;;;;;4899406;29;20215;-69
2020/12/04 18:44:08;;;;;;;2.77;1.10;;;4.80;99.90;;;;;;4898701;29;20213;-68
2020/12/04 18:46:35;;;;;;;1.90;1.10;;;4.80;99.90;;;;;;4898805;29;20214;-69
2020/12/04 18:49:01;;;;;;;2.77;1.30;;;4.80;99.90;;;;;;4899363;29;20295;-69
2020/12/04 18:51:27;;;;;;;4.43;1.40;;;4.70;99.90;;;;;;4898553;29;20210;-69
2020/12/04 18:53:53;;;;;;;2.90;1.30;;;4.80;99.90;;;;;;4898594;29;20800;-69
2020/12/04 18:56:21;;;;;;;3.23;1.20;;;4.90;99.90;;;;;;4898436;29;20233;-69
2020/12/04 18:58:47;;;;;;;1.90;1.10;;;4.90;99.90;;;;;;4897726;29;20586;-69
2020/12/04 19:01:14;;;;;;;4.20;1.37;;;4.90;99.90;;;;;;4898486;29;20296;-69
2020/12/04 19:03:40;;;;;;;2.77;1.20;;;4.80;99.90;;;;;;4898996;29;20262;-69